createdAt,value
2023-09-26T00:02:23.931Z,6.83
2023-09-26T00:06:25.855Z,7.00
2023-09-26T00:10:27.656Z,6.57
2023-09-26T00:14:29.596Z,6.60
2023-09-26T00:18:31.320Z,7.17
2023-09-26T00:22:33.281Z,7.40
2023-09-26T00:26:35.060Z,7.60
2023-09-26T00:30:36.882Z,6.77
2023-09-26T00:34:39.036Z,6.60
2023-09-26T00:38:40.923Z,7.67
2023-09-26T00:42:48.694Z,7.80
2023-09-26T00:46:50.763Z,8.27
2023-09-26T00:50:55.894Z,7.20
2023-09-26T00:54:58.133Z,7.83
2023-09-26T00:58:59.982Z,8.57
2023-09-26T01:03:01.952Z,9.77
2023-09-26T01:07:03.774Z,9.83
2023-09-26T01:11:06.360Z,12.30
2023-09-26T01:15:09.612Z,14.43
2023-09-26T01:19:11.488Z,16.17
2023-09-26T01:23:14.049Z,16.43
2023-09-26T01:27:15.802Z,16.07
2023-09-26T01:31:18.368Z,17.80
2023-09-26T01:35:20.272Z,17.33
2023-09-26T01:39:22.000Z,17.97
2023-09-26T01:43:23.921Z,17.30
2023-09-26T01:47:41.175Z,16.00
2023-09-26T01:51:42.939Z,14.33
2023-09-26T01:55:44.943Z,14.43
2023-09-26T01:59:46.796Z,12.60
2023-09-26T02:03:48.663Z,13.33
2023-09-26T02:07:50.747Z,12.83
2023-09-26T02:11:52.560Z,12.07
2023-09-26T02:15:54.470Z,11.20
2023-09-26T02:19:56.717Z,11.80
2023-09-26T02:23:58.549Z,12.10
2023-09-26T02:28:00.617Z,12.10
2023-09-26T02:32:05.556Z,10.33
2023-09-26T02:36:07.429Z,10.80
2023-09-26T02:40:13.059Z,11.90
2023-09-26T02:44:14.830Z,11.47
2023-09-26T02:48:16.705Z,10.33
2023-09-26T02:52:19.479Z,11.20
2023-09-26T02:56:21.397Z,11.40
2023-09-26T03:00:23.328Z,10.97
2023-09-26T03:04:25.488Z,10.53
2023-09-26T03:08:27.293Z,11.97
2023-09-26T03:12:29.488Z,12.10
2023-09-26T03:16:31.346Z,10.60
2023-09-26T03:20:33.453Z,10.40
2023-09-26T03:24:35.170Z,11.73
2023-09-26T03:28:37.312Z,13.13
2023-09-26T03:32:39.081Z,14.07
2023-09-26T03:36:41.221Z,12.60
2023-09-26T03:40:43.313Z,12.67
2023-09-26T03:44:45.148Z,14.80
2023-09-26T03:48:47.143Z,12.87
2023-09-26T03:52:49.008Z,13.33
2023-09-26T03:56:50.783Z,13.97
2023-09-26T04:00:52.749Z,14.33
2023-09-26T04:04:54.730Z,14.67
2023-09-26T04:08:56.653Z,14.37
2023-09-26T04:13:00.823Z,13.63
2023-09-26T04:17:03.553Z,13.63
2023-09-26T04:21:08.438Z,12.80
2023-09-26T04:25:12.477Z,12.77
2023-09-26T04:29:14.953Z,13.40
2023-09-26T04:33:17.269Z,12.53
2023-09-26T04:37:19.200Z,12.53
2023-09-26T04:41:21.080Z,12.30
2023-09-26T04:45:23.052Z,11.60
2023-09-26T04:49:24.966Z,12.50
2023-09-26T04:53:26.832Z,10.57
2023-09-26T04:57:29.180Z,10.37
2023-09-26T05:01:31.047Z,9.80
2023-09-26T05:05:33.222Z,9.50
2023-09-26T05:09:34.964Z,9.47
2023-09-26T05:13:36.922Z,9.70
2023-09-26T05:17:45.115Z,9.63
2023-09-26T05:21:47.079Z,9.83
2023-09-26T05:25:48.990Z,9.67
2023-09-26T05:29:50.969Z,8.67
2023-09-26T05:33:54.171Z,8.70
2023-09-26T05:37:56.111Z,8.90
2023-09-26T05:41:58.020Z,8.90
2023-09-26T05:46:08.154Z,8.40
2023-09-26T05:50:10.803Z,8.27
2023-09-26T05:54:29.533Z,8.57
2023-09-26T05:58:33.555Z,8.00
2023-09-26T06:02:36.671Z,8.30
2023-09-26T06:06:38.623Z,7.87
2023-09-26T06:10:40.626Z,7.70
2023-09-26T06:14:48.597Z,8.30
2023-09-26T06:18:53.684Z,8.33
2023-09-26T06:22:56.204Z,7.73
2023-09-26T06:27:00.962Z,9.30
2023-09-26T06:31:09.953Z,7.90
2023-09-26T06:35:12.193Z,8.70
2023-09-26T06:39:14.094Z,8.80
2023-09-26T06:43:18.780Z,9.70
2023-09-26T06:47:20.752Z,9.70
2023-09-26T06:51:25.919Z,9.07
2023-09-26T06:55:27.913Z,9.43
2023-09-26T06:59:32.680Z,9.35
2023-09-26T07:03:34.813Z,9.20
2023-09-26T07:07:36.741Z,9.50
2023-09-26T07:11:41.844Z,8.90
2023-09-26T07:15:43.912Z,8.95
2023-09-26T07:19:46.862Z,9.25
2023-09-26T07:23:51.777Z,10.88
2023-09-26T07:27:53.797Z,10.23
2023-09-26T07:31:55.947Z,10.07
2023-09-26T07:36:00.188Z,10.30
2023-09-26T07:40:10.501Z,9.93
2023-09-26T07:44:15.342Z,10.63
2023-09-26T07:48:20.456Z,10.10
2023-09-26T07:52:28.166Z,9.98
2023-09-26T07:56:32.234Z,10.50
2023-09-26T08:00:42.640Z,10.35
2023-09-26T08:04:48.691Z,9.93
2023-09-26T08:09:03.290Z,9.93
2023-09-26T08:13:08.355Z,10.50
2023-09-26T08:17:10.401Z,9.48
2023-09-26T08:21:12.965Z,10.30
2023-09-26T08:25:17.707Z,10.00
2023-09-26T08:29:22.088Z,10.17
2023-09-26T08:33:30.024Z,10.50
2023-09-26T08:37:34.947Z,9.13
2023-09-26T08:41:36.919Z,10.27
2023-09-26T08:45:40.799Z,9.63
2023-09-26T08:49:42.671Z,10.27
2023-09-26T08:53:44.485Z,9.73
2023-09-26T08:57:46.798Z,10.10
2023-09-26T09:01:50.623Z,10.10
2023-09-26T09:05:52.584Z,10.50
2023-09-26T09:10:06.610Z,10.17
2023-09-26T09:14:08.689Z,10.87
2023-09-26T09:18:11.527Z,10.13
2023-09-26T09:22:17.177Z,11.03
2023-09-26T09:26:20.634Z,11.13
2023-09-26T09:30:23.317Z,10.00
2023-09-26T09:34:29.396Z,10.30
2023-09-26T09:38:34.160Z,10.23
2023-09-26T09:42:36.859Z,9.97
2023-09-26T09:46:41.908Z,10.40
2023-09-26T09:50:45.229Z,9.10
2023-09-26T09:54:47.755Z,10.10
2023-09-26T09:58:51.215Z,8.97
2023-09-26T10:02:53.618Z,10.00
2023-09-26T10:06:56.130Z,9.57
2023-09-26T10:10:58.012Z,8.33
2023-09-26T10:14:59.750Z,9.63
2023-09-26T10:19:01.569Z,9.43
2023-09-26T10:23:12.669Z,9.53
2023-09-26T10:27:27.007Z,8.60
2023-09-26T10:31:30.520Z,9.73
2023-09-26T10:35:32.611Z,9.23
2023-09-26T10:39:41.086Z,9.40
2023-09-26T10:52:17.312Z,9.10
2023-09-26T10:56:19.806Z,8.87
2023-09-26T11:00:21.919Z,8.03
2023-09-26T11:04:29.795Z,8.00
2023-09-26T11:08:32.251Z,8.13
2023-09-26T11:12:34.118Z,8.17
2023-09-26T11:16:35.992Z,7.73
2023-09-26T11:20:41.641Z,7.70
2023-09-26T11:24:47.481Z,8.17
2023-09-26T11:28:50.055Z,8.00
2023-09-26T11:32:55.857Z,7.10
2023-09-26T11:36:59.145Z,7.10
2023-09-26T11:41:01.074Z,7.17
2023-09-26T11:45:04.413Z,7.87
2023-09-26T11:49:06.344Z,7.80
2023-09-26T11:53:08.672Z,7.90
2023-09-26T11:57:12.888Z,8.00
2023-09-26T12:01:24.534Z,7.63
2023-09-26T12:05:26.456Z,7.90
2023-09-26T12:09:31.007Z,7.63
2023-09-26T12:13:33.266Z,8.47
2023-09-26T12:17:36.702Z,8.37
2023-09-26T12:21:38.672Z,8.10
2023-09-26T12:25:40.911Z,8.23
2023-09-26T12:29:42.772Z,9.35
2023-09-26T12:33:46.313Z,8.50
2023-09-26T12:37:49.163Z,8.60
2023-09-26T12:41:51.177Z,8.87
2023-09-26T12:45:53.110Z,8.57
2023-09-26T12:49:55.349Z,8.02
2023-09-26T12:53:58.090Z,8.68
2023-09-26T12:57:59.923Z,8.85
2023-09-26T13:02:02.576Z,8.60
2023-09-26T13:06:04.634Z,8.43
2023-09-26T13:10:07.524Z,8.33
2023-09-26T13:14:09.314Z,8.55
2023-09-26T13:18:11.530Z,8.80
2023-09-26T13:22:15.195Z,8.50
2023-09-26T13:26:17.090Z,8.73
2023-09-26T13:30:19.236Z,8.60
2023-09-26T13:34:21.127Z,8.15
2023-09-26T13:38:23.204Z,8.00
2023-09-26T13:42:25.403Z,7.43
2023-09-26T13:46:27.278Z,7.43
2023-09-26T13:50:29.217Z,7.78
2023-09-26T13:54:31.460Z,8.20
2023-09-26T13:58:34.068Z,7.97
2023-09-26T14:02:36.025Z,7.75
2023-09-26T14:06:38.128Z,8.32
2023-09-26T14:10:40.167Z,8.27
2023-09-26T14:14:44.493Z,8.93
2023-09-26T14:18:46.481Z,8.30
2023-09-26T14:22:48.714Z,8.60
2023-09-26T14:26:52.337Z,9.10
2023-09-26T14:30:55.046Z,9.20
2023-09-26T14:34:57.044Z,8.75
2023-09-26T14:38:59.914Z,8.93
2023-09-26T14:43:02.140Z,8.87
2023-09-26T14:47:04.602Z,8.93
2023-09-26T14:51:06.526Z,8.53
2023-09-26T14:55:08.493Z,8.87
2023-09-26T14:59:17.535Z,9.53
2023-09-26T15:03:22.703Z,8.50
2023-09-26T15:07:24.855Z,8.52
2023-09-26T15:11:27.057Z,8.90
2023-09-26T15:15:39.807Z,8.90
2023-09-26T15:19:42.907Z,9.07
2023-09-26T15:23:44.853Z,9.23
2023-09-26T15:27:46.830Z,8.47
2023-09-26T15:31:48.839Z,8.53
2023-09-26T15:35:53.945Z,8.10
2023-09-26T15:40:02.026Z,8.67
2023-09-26T15:44:08.036Z,8.10
2023-09-26T15:48:10.207Z,8.27
2023-09-26T15:56:29.674Z,8.43
2023-09-26T16:00:32.033Z,8.23
2023-09-26T16:04:34.465Z,8.30
2023-09-26T16:08:36.427Z,8.30
2023-09-26T16:12:47.072Z,8.10
2023-09-26T16:16:58.566Z,8.07
2023-09-26T16:21:02.511Z,8.83
2023-09-26T16:25:04.496Z,7.83
2023-09-26T16:29:06.910Z,8.67
2023-09-26T16:33:09.124Z,8.83
2023-09-26T16:37:14.260Z,8.53
2023-09-26T16:41:16.441Z,9.20
2023-09-26T16:45:18.363Z,11.23
2023-09-26T16:49:20.572Z,16.97
2023-09-26T16:53:22.767Z,17.57
2023-09-26T16:57:24.874Z,10.70
2023-09-26T17:01:26.814Z,10.60
2023-09-26T17:05:35.201Z,10.67
2023-09-26T17:09:40.261Z,10.10
2023-09-26T17:13:46.765Z,9.13
2023-09-26T17:17:49.298Z,9.23
2023-09-26T17:22:38.164Z,9.37
2023-09-26T17:26:56.985Z,10.27
2023-09-26T17:31:10.826Z,9.53
2023-09-26T17:35:19.938Z,10.17
2023-09-26T17:39:53.739Z,11.13
2023-09-26T17:44:53.668Z,9.93
2023-09-26T17:48:57.922Z,12.53
2023-09-26T17:53:00.077Z,11.70
2023-09-26T17:57:05.054Z,10.93
2023-09-26T18:01:11.258Z,10.40
2023-09-26T18:05:19.484Z,11.10
2023-09-26T18:09:27.087Z,10.97
2023-09-26T18:13:29.306Z,11.37
2023-09-26T18:17:40.436Z,11.80
2023-09-26T18:21:50.522Z,11.33
2023-09-26T18:26:10.314Z,11.93
2023-09-26T18:30:15.887Z,12.27
2023-09-26T18:34:23.603Z,12.03
2023-09-26T18:38:34.403Z,13.17
2023-09-26T18:43:20.774Z,12.40
2023-09-26T18:47:34.151Z,12.33
2023-09-26T18:56:29.225Z,12.07
2023-09-26T19:05:49.925Z,12.53
2023-09-26T19:09:38.503Z,13.57
2023-09-26T19:13:44.010Z,12.77
2023-09-26T19:17:49.238Z,13.70
2023-09-26T19:22:27.328Z,13.13
2023-09-26T19:26:22.455Z,13.60
2023-09-26T19:30:24.861Z,13.27
2023-09-26T19:34:27.944Z,13.93
2023-09-26T19:38:33.739Z,13.97
2023-09-26T19:42:36.274Z,13.10
2023-09-26T19:46:38.369Z,14.57
2023-09-26T19:50:44.347Z,14.17
2023-09-26T19:54:49.156Z,15.13
2023-09-26T19:58:51.089Z,13.63
2023-09-26T20:02:53.369Z,14.83
2023-09-26T20:06:56.293Z,15.10
2023-09-26T20:10:58.282Z,14.97
2023-09-26T20:15:00.198Z,14.83
2023-09-26T20:19:02.145Z,15.07
2023-09-26T20:23:07.540Z,14.07
2023-09-26T20:27:12.192Z,15.07
2023-09-26T20:31:18.158Z,14.43
2023-09-26T20:35:20.415Z,13.80
2023-09-26T20:39:22.471Z,14.70
2023-09-26T20:43:24.741Z,15.53
2023-09-26T20:47:26.672Z,14.60
2023-09-26T20:51:28.612Z,14.77
2023-09-26T20:55:30.682Z,14.77
2023-09-26T20:59:37.218Z,14.63
2023-09-26T21:03:39.295Z,15.17
2023-09-26T21:07:41.296Z,13.90
2023-09-26T21:11:43.071Z,14.60
2023-09-26T21:15:45.065Z,14.47
2023-09-26T21:19:47.401Z,15.00
2023-09-26T21:23:50.029Z,14.00
2023-09-26T21:27:51.886Z,14.20
2023-09-26T21:31:53.705Z,15.20
2023-09-26T21:35:55.620Z,15.33
2023-09-26T21:39:58.094Z,14.93
2023-09-26T21:43:59.912Z,14.00
2023-09-26T21:48:02.844Z,14.60
2023-09-26T21:52:04.832Z,15.10
2023-09-26T21:56:10.413Z,14.80
2023-09-26T22:00:22.822Z,14.63
2023-09-26T22:04:26.216Z,16.23
2023-09-26T22:08:28.021Z,15.80
2023-09-26T22:12:29.921Z,14.43
2023-09-26T22:16:32.881Z,14.37
2023-09-26T22:20:35.940Z,16.73
2023-09-26T22:24:37.915Z,14.33
2023-09-26T22:28:42.332Z,14.90
2023-09-26T22:32:44.476Z,13.93
2023-09-26T22:36:46.710Z,15.37
2023-09-26T22:40:52.337Z,13.87
2023-09-26T22:44:57.903Z,13.80
2023-09-26T22:48:59.981Z,14.10
2023-09-26T22:53:01.803Z,14.07
2023-09-26T22:57:04.591Z,14.87
2023-09-26T23:01:06.532Z,13.47
2023-09-26T23:05:10.025Z,13.63
2023-09-26T23:09:13.192Z,13.70
2023-09-26T23:13:14.979Z,13.97
2023-09-26T23:17:16.816Z,14.50
2023-09-26T23:21:18.908Z,14.67
2023-09-26T23:25:20.720Z,13.70
2023-09-26T23:29:22.995Z,13.57
2023-09-26T23:33:24.872Z,14.10
2023-09-26T23:37:27.480Z,14.83
2023-09-26T23:41:29.491Z,13.70
2023-09-26T23:45:32.315Z,14.87
2023-09-26T23:49:34.786Z,13.97
2023-09-26T23:53:36.565Z,13.90
2023-09-26T23:57:38.451Z,13.90
